Time;durP1;ratioP1;P1;durP2;ratioP2;P2;SDS_P1;SDS_P2;PMS_P1;PMS_P2;Temp;Humidity;BMP_temperature;BMP_pressure;BME280_temperature;BME280_humidity;BME280_pressure;Samples;Min_cycle;Max_cycle;Signal;HPM_P1;HPM_P2
2023/10/16 00:01:03;;;;;;;7.15;2.42;;;9.40;58.90;;;;;;4956916;28;20494;-48
2023/10/16 00:03:31;;;;;;;6.65;2.15;;;9.30;58.90;;;;;;4956573;28;20082;-47
2023/10/16 00:05:58;;;;;;;4.43;2.33;;;9.30;58.90;;;;;;4956504;28;20051;-48
2023/10/16 00:08:27;;;;;;;6.25;2.88;;;9.30;58.90;;;;;;4956624;28;20105;-48
2023/10/16 00:10:58;;;;;;;8.80;2.83;;;9.30;58.90;;;;;;4957559;28;20046;-52
2023/10/16 00:13:27;;;;;;;4.30;2.40;;;9.30;59.00;;;;;;4957506;28;20066;-51
2023/10/16 00:15:56;;;;;;;5.57;2.22;;;9.20;59.00;;;;;;4957387;28;20054;-50
2023/10/16 00:18:24;;;;;;;4.72;2.38;;;9.20;59.10;;;;;;4959982;28;20046;-51
2023/10/16 00:20:52;;;;;;;10.23;2.25;;;9.20;59.10;;;;;;4957144;28;20050;-50
2023/10/16 00:23:24;;;;;;;11.02;2.80;;;9.20;59.10;;;;;;4957561;28;20066;-51
2023/10/16 00:25:53;;;;;;;11.52;2.50;;;9.20;59.10;;;;;;4958033;28;20053;-52
2023/10/16 00:28:22;;;;;;;9.93;2.55;;;9.20;59.00;;;;;;4958093;28;20061;-51
2023/10/16 00:30:51;;;;;;;8.90;3.10;;;9.10;58.90;;;;;;4957391;28;21599;-51
2023/10/16 00:33:19;;;;;;;9.00;2.80;;;9.10;58.90;;;;;;4956284;28;20062;-50
2023/10/16 00:35:48;;;;;;;13.65;3.15;;;9.10;59.00;;;;;;4957934;28;20055;-48
2023/10/16 00:38:15;;;;;;;7.40;3.10;;;9.10;59.10;;;;;;4957117;28;20126;-48
2023/10/16 00:40:51;;;;;;;8.85;3.17;;;9.00;59.20;;;;;;4956875;28;20495;-51
2023/10/16 00:43:21;;;;;;;5.25;2.53;;;9.00;59.30;;;;;;4957031;28;20065;-50
2023/10/16 00:45:49;;;;;;;5.90;3.10;;;9.00;59.40;;;;;;4958141;28;20059;-51
2023/10/16 00:48:18;;;;;;;5.93;2.80;;;9.00;59.40;;;;;;4958612;28;20074;-50
2023/10/16 00:50:48;;;;;;;7.38;2.97;;;9.00;59.30;;;;;;4957108;28;21197;-48
2023/10/16 00:53:20;;;;;;;7.93;2.85;;;8.90;59.30;;;;;;4956342;28;20051;-52
2023/10/16 00:55:49;;;;;;;5.38;2.63;;;8.90;59.40;;;;;;4955791;28;20055;-50
2023/10/16 00:58:16;;;;;;;7.57;2.97;;;8.90;59.50;;;;;;4955686;28;20058;-50
2023/10/16 01:00:46;;;;;;;5.43;2.35;;;8.90;59.40;;;;;;4955791;28;20062;-52
2023/10/16 01:03:15;;;;;;;7.72;2.60;;;8.90;59.50;;;;;;4955626;28;20530;-49
2023/10/16 01:05:45;;;;;;;7.72;2.92;;;8.90;59.40;;;;;;4955192;28;20055;-46
2023/10/16 01:08:13;;;;;;;6.80;2.53;;;8.90;59.40;;;;;;4955413;28;20140;-48
2023/10/16 01:10:41;;;;;;;5.43;2.30;;;8.90;59.40;;;;;;4955781;28;20055;-50
2023/10/16 01:13:12;;;;;;;7.43;2.55;;;8.80;59.90;;;;;;4955464;28;20065;-52
2023/10/16 01:15:46;;;;;;;6.90;2.97;;;8.80;59.40;;;;;;4956079;28;20062;-51
2023/10/16 01:18:15;;;;;;;5.70;2.28;;;8.80;59.40;;;;;;4956078;28;20053;-49
2023/10/16 01:20:48;;;;;;;7.47;2.60;;;8.80;59.40;;;;;;4954417;28;20062;-48
2023/10/16 01:23:20;;;;;;;5.47;2.20;;;8.70;59.30;;;;;;4957109;28;20388;-44
2023/10/16 01:25:49;;;;;;;4.38;2.42;;;8.70;59.20;;;;;;4957759;28;20070;-46
2023/10/16 01:28:17;;;;;;;8.18;2.65;;;8.70;59.20;;;;;;4956944;28;20508;-45
2023/10/16 01:30:45;;;;;;;6.97;2.60;;;8.70;59.30;;;;;;4957628;28;21483;-44
2023/10/16 01:33:13;;;;;;;7.53;3.08;;;8.60;59.30;;;;;;4956654;28;20062;-46
2023/10/16 01:35:40;;;;;;;6.10;2.83;;;8.60;59.90;;;;;;4956259;28;20059;-49
2023/10/16 01:38:14;;;;;;;6.10;2.55;;;8.60;60.10;;;;;;4956210;28;20054;-48
2023/10/16 01:41:02;;;;;;;7.18;2.67;;;8.60;59.70;;;;;;4956403;28;20059;-48
2023/10/16 01:43:30;;;;;;;4.90;2.75;;;8.60;60.20;;;;;;4956818;28;20065;-46
2023/10/16 01:46:01;;;;;;;7.47;2.90;;;8.50;59.50;;;;;;4957460;28;20057;-46
2023/10/16 01:48:28;;;;;;;7.93;2.90;;;8.50;59.40;;;;;;4956771;28;20123;-51
2023/10/16 01:50:56;;;;;;;8.02;3.05;;;8.50;59.40;;;;;;4956189;28;20051;-49
2023/10/16 01:53:25;;;;;;;6.78;2.88;;;8.50;59.40;;;;;;4956510;28;20515;-48
2023/10/16 01:55:55;;;;;;;8.65;3.38;;;8.40;59.30;;;;;;4957509;28;20059;-47
2023/10/16 01:58:23;;;;;;;6.60;3.08;;;8.40;59.30;;;;;;4956476;28;20050;-46
2023/10/16 02:00:52;;;;;;;7.80;2.45;;;8.40;59.30;;;;;;4955854;28;20058;-50
2023/10/16 02:03:20;;;;;;;6.47;2.80;;;8.40;59.30;;;;;;4954678;28;20065;-45
2023/10/16 02:05:47;;;;;;;8.05;3.30;;;8.30;59.20;;;;;;4955149;28;20131;-48
2023/10/16 02:08:15;;;;;;;14.77;2.50;;;8.30;59.30;;;;;;4953859;28;20396;-46
2023/10/16 02:10:43;;;;;;;4.85;2.70;;;8.30;59.30;;;;;;4954388;28;20054;-46
2023/10/16 02:13:12;;;;;;;7.72;3.50;;;8.30;59.30;;;;;;4955655;28;20065;-46
2023/10/16 02:15:40;;;;;;;8.98;3.10;;;8.30;59.30;;;;;;4954595;28;20055;-46
2023/10/16 02:18:07;;;;;;;5.65;2.72;;;8.30;59.40;;;;;;4954984;28;20058;-46
2023/10/16 02:20:38;;;;;;;6.78;2.88;;;8.20;59.40;;;;;;4954931;28;20059;-48
2023/10/16 02:23:07;;;;;;;11.43;3.92;;;8.20;59.40;;;;;;4954005;28;20412;-47
2023/10/16 02:25:35;;;;;;;10.20;3.17;;;8.20;59.40;;;;;;4955718;28;20419;-45
2023/10/16 02:28:04;;;;;;;6.45;2.70;;;8.20;59.30;;;;;;4955273;28;20061;-48
2023/10/16 02:30:38;;;;;;;6.03;2.50;;;8.20;59.30;;;;;;4954779;28;20063;-48
2023/10/16 02:33:18;;;;;;;9.57;2.95;;;8.20;59.30;;;;;;4955528;28;20054;-50
2023/10/16 02:35:48;;;;;;;8.40;2.95;;;8.10;59.30;;;;;;4955959;28;20054;-48
2023/10/16 02:38:23;;;;;;;5.28;2.80;;;8.10;59.20;;;;;;4954234;28;20051;-51
2023/10/16 02:40:53;;;;;;;4.82;3.03;;;8.10;59.20;;;;;;4955004;28;20069;-49
2023/10/16 02:43:21;;;;;;;6.20;2.80;;;8.00;59.20;;;;;;4954321;28;20523;-51
2023/10/16 02:45:52;;;;;;;6.78;3.10;;;8.00;59.20;;;;;;4956159;28;20059;-50
2023/10/16 02:48:21;;;;;;;11.40;3.30;;;8.00;59.30;;;;;;4955372;28;20051;-51
2023/10/16 02:50:53;;;;;;;5.18;3.00;;;8.00;59.50;;;;;;4954782;28;20482;-48
2023/10/16 02:53:22;;;;;;;7.30;3.22;;;8.00;59.50;;;;;;4954484;28;20331;-51
2023/10/16 02:55:50;;;;;;;3.55;2.72;;;8.00;59.50;;;;;;4955621;28;20060;-50
2023/10/16 02:58:17;;;;;;;7.82;2.97;;;8.00;59.30;;;;;;4954299;28;20523;-49
2023/10/16 03:00:49;;;;;;;4.95;3.05;;;8.00;59.10;;;;;;4955502;28;20628;-49
2023/10/16 03:03:19;;;;;;;7.43;2.90;;;7.90;58.90;;;;;;4950489;28;20065;-49
2023/10/16 03:05:46;;;;;;;5.68;3.08;;;7.90;58.90;;;;;;4952773;28;20073;-47
2023/10/16 03:08:18;;;;;;;5.78;2.58;;;7.90;59.00;;;;;;4951406;28;20054;-49
2023/10/16 03:10:46;;;;;;;6.28;2.60;;;7.80;58.90;;;;;;4951741;28;20051;-51
2023/10/16 03:13:15;;;;;;;8.45;3.13;;;7.80;58.90;;;;;;4952743;28;20431;-51
2023/10/16 03:15:45;;;;;;;4.80;2.72;;;7.80;59.00;;;;;;4951679;28;20069;-51
2023/10/16 03:18:17;;;;;;;5.13;2.88;;;7.80;59.00;;;;;;4952232;28;20053;-52
2023/10/16 03:20:47;;;;;;;3.97;2.80;;;7.70;59.00;;;;;;4950855;28;20054;-51
2023/10/16 03:23:18;;;;;;;6.35;3.47;;;7.70;59.20;;;;;;4951715;28;20050;-52
2023/10/16 03:25:52;;;;;;;6.78;3.25;;;7.60;59.20;;;;;;4952310;28;20059;-50
2023/10/16 03:28:19;;;;;;;7.45;3.50;;;7.60;59.30;;;;;;4951913;28;20909;-51
2023/10/16 03:30:47;;;;;;;4.97;3.20;;;7.60;59.30;;;;;;4951315;28;20047;-48
2023/10/16 03:33:15;;;;;;;5.18;3.15;;;7.60;59.30;;;;;;4953268;28;20050;-49
2023/10/16 03:35:45;;;;;;;7.53;3.55;;;7.60;59.40;;;;;;4955099;28;20511;-51
2023/10/16 03:38:20;;;;;;;5.90;3.13;;;7.60;59.40;;;;;;4955301;28;20520;-49
2023/10/16 03:40:52;;;;;;;10.15;3.25;;;7.60;59.40;;;;;;4954015;28;20058;-49
2023/10/16 03:43:22;;;;;;;4.75;3.17;;;7.50;59.30;;;;;;4955080;28;20051;-51
2023/10/16 03:45:50;;;;;;;7.22;3.22;;;7.50;59.40;;;;;;4955332;28;20062;-47
2023/10/16 03:48:19;;;;;;;6.85;3.15;;;7.50;59.40;;;;;;4955316;28;20066;-48
2023/10/16 03:50:47;;;;;;;5.25;3.38;;;7.50;59.50;;;;;;4953246;28;20050;-50
2023/10/16 03:53:16;;;;;;;7.20;3.75;;;7.50;59.40;;;;;;4953872;28;20059;-50
2023/10/16 03:55:48;;;;;;;6.45;3.33;;;7.50;59.40;;;;;;4954854;28;20059;-46
2023/10/16 03:58:16;;;;;;;7.78;3.50;;;7.50;59.30;;;;;;4954479;28;20051;-50
2023/10/16 04:00:53;;;;;;;6.57;3.40;;;7.40;59.20;;;;;;4955188;28;20054;-51
2023/10/16 04:03:21;;;;;;;8.02;3.50;;;7.40;59.20;;;;;;4950399;28;20066;-49
2023/10/16 04:05:51;;;;;;;7.35;3.55;;;7.40;59.20;;;;;;4949985;28;20059;-50
2023/10/16 04:08:23;;;;;;;5.25;3.47;;;7.40;59.20;;;;;;4951994;28;20058;-51
2023/10/16 04:14:14;;;;;;;7.63;3.70;;;7.30;59.40;;;;;;4951464;28;20035;-51
2023/10/16 04:16:43;;;;;;;7.63;4.07;;;7.30;59.40;;;;;;4950315;28;20608;-45
2023/10/16 04:19:36;;;;;;;8.55;3.50;;;7.30;59.40;;;;;;4950668;28;20058;-50
2023/10/16 04:22:08;;;;;;;4.97;3.55;;;7.30;59.50;;;;;;4950624;28;20088;-47
2023/10/16 04:24:44;;;;;;;8.68;3.50;;;7.30;59.50;;;;;;4950004;28;20051;-47
2023/10/16 04:32:56;;;;;;;5.47;3.25;;;7.20;59.40;;;;;;4956710;28;20050;-52
2023/10/16 04:35:29;;;;;;;6.97;3.95;;;7.20;59.40;;;;;;4951522;28;20404;-50
2023/10/16 04:38:27;;;;;;;5.50;3.08;;;7.20;59.50;;;;;;4952196;28;20426;-50
2023/10/16 04:43:51;;;;;;;11.30;4.55;;;7.20;59.50;;;;;;4961647;28;20058;-50
2023/10/16 04:46:20;;;;;;;6.65;3.80;;;7.20;59.60;;;;;;4956460;28;20414;-49
2023/10/16 04:48:51;;;;;;;6.28;3.65;;;7.20;59.60;;;;;;4957437;28;20487;-50
2023/10/16 04:51:22;;;;;;;5.05;3.40;;;7.10;59.50;;;;;;4955657;28;20658;-50
2023/10/16 04:54:13;;;;;;;8.95;3.55;;;7.10;59.50;;;;;;4956038;28;20504;-49
2023/10/16 04:57:37;;;;;;;6.00;3.85;;;7.10;59.50;;;;;;4956623;28;20077;-48
2023/10/16 05:00:28;;;;;;;6.25;3.50;;;7.10;59.60;;;;;;4955845;28;20051;-49
2023/10/16 05:03:15;;;;;;;8.30;3.85;;;7.10;59.60;;;;;;4955206;28;20067;-51
2023/10/16 05:05:56;;;;;;;9.00;4.15;;;7.10;59.60;;;;;;4951562;28;20086;-50
2023/10/16 05:08:35;;;;;;;6.80;4.13;;;7.10;59.60;;;;;;4952035;28;20050;-48
2023/10/16 05:13:56;;;;;;;6.85;3.80;;;7.10;59.50;;;;;;4958563;28;20055;-48
2023/10/16 05:16:32;;;;;;;6.72;4.00;;;7.00;59.40;;;;;;4953745;28;20059;-52
2023/10/16 05:19:15;;;;;;;5.28;3.33;;;7.00;59.40;;;;;;4953993;28;20097;-49
2023/10/16 06:14:12;;;;;;;7.40;3.83;;;6.70;59.00;;;;;;4958555;28;20055;-47
2023/10/16 06:16:40;;;;;;;4.88;3.03;;;6.70;59.10;;;;;;4953506;28;20059;-51
2023/10/16 06:19:15;;;;;;;5.85;3.05;;;6.70;59.20;;;;;;4952419;28;20043;-52
2023/10/16 06:21:46;;;;;;;4.22;3.05;;;6.70;59.30;;;;;;4952182;28;20059;-50
2023/10/16 06:24:28;;;;;;;6.07;3.50;;;6.70;59.30;;;;;;4952125;28;20070;-52
2023/10/16 06:26:56;;;;;;;4.70;3.30;;;6.70;59.20;;;;;;4952603;28;20062;-48
2023/10/16 06:29:25;;;;;;;7.32;3.67;;;6.70;59.20;;;;;;4951614;28;20061;-52
2023/10/16 06:31:58;;;;;;;57.10;21.80;;;6.70;59.30;;;;;;4953396;28;20621;-50
2023/10/16 06:34:27;;;;;;;24.08;10.48;;;6.70;59.20;;;;;;4954304;28;20062;-49
2023/10/16 06:36:55;;;;;;;8.30;5.05;;;6.80;59.30;;;;;;4956154;28;20529;-51
2023/10/16 06:39:29;;;;;;;7.85;4.28;;;6.80;59.20;;;;;;4956061;28;20058;-52
2023/10/16 06:41:57;;;;;;;6.72;3.70;;;6.80;59.20;;;;;;4953973;28;20059;-48
2023/10/16 06:44:29;;;;;;;8.18;4.05;;;6.80;59.20;;;;;;4955728;28;20050;-48
2023/10/16 06:46:59;;;;;;;5.43;3.60;;;6.80;59.10;;;;;;4955660;28;20530;-52
2023/10/16 06:49:35;;;;;;;9.52;4.43;;;6.80;59.10;;;;;;4954753;28;20058;-46
2023/10/16 06:52:04;;;;;;;7.90;4.28;;;6.80;59.10;;;;;;4955972;28;20055;-50
2023/10/16 06:54:31;;;;;;;6.90;4.35;;;6.80;59.20;;;;;;4954458;28;20042;-51
2023/10/16 06:57:04;;;;;;;10.98;5.45;;;6.80;59.30;;;;;;4954442;28;20058;-49
2023/10/16 06:59:32;;;;;;;8.90;5.40;;;6.80;59.30;;;;;;4955574;28;20062;-50
2023/10/16 07:02:00;;;;;;;9.05;5.00;;;6.90;59.30;;;;;;4954404;28;20066;-50
2023/10/16 07:04:29;;;;;;;9.70;5.18;;;6.90;59.40;;;;;;4951657;28;20524;-50
2023/10/16 07:06:57;;;;;;;9.80;5.28;;;6.90;59.60;;;;;;4956178;28;20397;-51
2023/10/16 07:09:35;;;;;;;12.07;6.43;;;6.90;59.70;;;;;;4956133;28;20058;-48
2023/10/16 07:12:03;;;;;;;14.15;6.22;;;6.90;59.70;;;;;;4953891;28;20054;-52
2023/10/16 07:14:31;;;;;;;14.52;7.30;;;7.00;59.80;;;;;;4954270;28;20062;-47
2023/10/16 07:16:59;;;;;;;11.05;6.57;;;7.00;59.80;;;;;;4951564;28;20463;-51
2023/10/16 07:19:28;;;;;;;18.27;6.68;;;7.10;59.90;;;;;;4952850;28;20062;-50
2023/10/16 07:21:56;;;;;;;16.23;7.85;;;7.10;59.90;;;;;;4952578;28;20055;-49
2023/10/16 07:24:23;;;;;;;15.45;7.55;;;7.20;60.00;;;;;;4950835;28;20054;-51
2023/10/16 07:26:50;;;;;;;16.23;7.82;;;7.20;60.10;;;;;;4951940;28;20085;-49
2023/10/16 07:29:21;;;;;;;16.63;8.02;;;7.30;60.10;;;;;;4952243;28;20054;-50
2023/10/16 07:31:51;;;;;;;35.03;9.10;;;7.30;60.20;;;;;;4953032;28;20066;-49
2023/10/16 07:34:18;;;;;;;19.17;7.68;;;7.30;60.20;;;;;;4952079;28;20054;-50
2023/10/16 07:36:49;;;;;;;18.52;8.25;;;7.40;60.30;;;;;;4953993;28;20507;-48
2023/10/16 07:39:16;;;;;;;22.60;9.48;;;7.50;60.40;;;;;;4951765;28;20488;-50
2023/10/16 07:41:43;;;;;;;23.55;9.10;;;7.50;60.50;;;;;;4951268;28;20059;-50
2023/10/16 07:44:11;;;;;;;28.73;9.65;;;7.60;60.60;;;;;;4953448;28;20058;-47
2023/10/16 07:46:38;;;;;;;23.73;8.82;;;7.60;60.60;;;;;;4956138;28;20416;-49
2023/10/16 07:49:12;;;;;;;21.73;9.35;;;7.70;60.60;;;;;;4953457;28;20058;-49
2023/10/16 07:51:45;;;;;;;;;;;7.80;60.70;;;;;;4953999;28;20503;-48
2023/10/16 07:54:13;;;;;;;31.95;10.00;;;7.80;60.80;;;;;;4952899;28;20278;-50
2023/10/16 07:56:41;;;;;;;28.38;10.75;;;7.90;60.70;;;;;;4955038;28;20055;-51
2023/10/16 07:59:08;;;;;;;25.05;10.07;;;7.90;60.80;;;;;;4955575;28;20058;-51
2023/10/16 08:01:41;;;;;;;196.68;67.97;;;8.00;61.00;;;;;;4954230;28;20061;-49
2023/10/16 08:04:34;;;;;;;58.60;23.55;;;8.00;61.00;;;;;;4953842;28;20065;-52
2023/10/16 08:07:16;;;;;;;29.60;12.55;;;8.10;61.20;;;;;;4954526;28;20054;-50
2023/10/16 08:12:41;;;;;;;21.15;8.43;;;8.20;61.20;;;;;;4954177;28;20074;-49
2023/10/16 08:15:21;;;;;;;19.50;8.15;;;8.30;61.30;;;;;;4957719;28;20059;-49
2023/10/16 08:17:49;;;;;;;23.63;9.18;;;8.40;61.40;;;;;;4958615;28;20491;-47
2023/10/16 08:20:20;;;;;;;19.50;8.57;;;8.40;61.40;;;;;;4956734;28;20050;-51
2023/10/16 08:22:48;;;;;;;22.30;8.90;;;8.50;61.50;;;;;;4954498;28;20050;-48
2023/10/16 08:25:33;;;;;;;20.15;8.98;;;8.50;61.50;;;;;;4950990;28;20065;-46
2023/10/16 08:28:18;;;;;;;19.75;8.00;;;8.60;61.50;;;;;;4956239;28;20484;-47
2023/10/16 08:30:50;;;;;;;28.13;8.57;;;8.60;61.50;;;;;;4955585;28;20054;-49
2023/10/16 08:33:18;;;;;;;18.45;8.02;;;8.70;61.60;;;;;;4954993;28;20516;-48
2023/10/16 08:35:46;;;;;;;22.70;8.45;;;8.80;62.30;;;;;;4954668;28;20059;-48
2023/10/16 08:38:14;;;;;;;16.42;8.18;;;8.90;61.60;;;;;;4953342;28;20059;-49
2023/10/16 08:40:56;;;;;;;22.15;9.18;;;8.90;61.60;;;;;;4949822;28;20055;-51
2023/10/16 08:43:36;;;;;;;16.75;8.55;;;8.90;61.50;;;;;;4957844;28;20109;-49
2023/10/16 08:46:09;;;;;;;16.15;8.25;;;9.00;61.60;;;;;;4958167;28;20051;-50
2023/10/16 08:48:40;;;;;;;16.60;8.85;;;9.10;61.40;;;;;;4955958;28;20050;-47
2023/10/16 08:51:10;;;;;;;16.42;8.48;;;9.10;61.30;;;;;;4957088;28;20491;-47
2023/10/16 08:53:41;;;;;;;19.63;8.07;;;9.20;61.30;;;;;;4955594;28;20063;-51
2023/10/16 08:56:17;;;;;;;15.40;7.82;;;9.20;61.30;;;;;;4959702;28;20542;-49
2023/10/16 08:58:45;;;;;;;14.63;7.15;;;9.30;61.20;;;;;;4959830;28;20411;-49
2023/10/16 09:01:14;;;;;;;13.88;7.35;;;9.30;61.20;;;;;;4956668;28;20514;-51
2023/10/16 09:03:46;;;;;;;13.75;7.38;;;9.40;61.20;;;;;;4957549;28;20062;-48
2023/10/16 09:06:21;;;;;;;15.30;7.35;;;9.40;61.20;;;;;;4953093;28;20415;-47
2023/10/16 09:08:48;;;;;;;13.75;6.93;;;9.40;61.10;;;;;;4956947;28;20065;-48
2023/10/16 09:11:19;;;;;;;11.95;7.10;;;9.50;61.00;;;;;;4955397;28;20078;-50
2023/10/16 09:13:50;;;;;;;13.95;7.47;;;9.60;60.90;;;;;;4958507;28;20046;-48
2023/10/16 09:16:21;;;;;;;14.15;6.82;;;9.60;60.90;;;;;;4956878;28;20055;-50
2023/10/16 09:18:48;;;;;;;15.25;7.20;;;9.60;60.80;;;;;;4957257;28;20066;-49
2023/10/16 09:21:22;;;;;;;14.30;7.72;;;9.70;60.70;;;;;;4956144;28;20431;-48
2023/10/16 09:23:52;;;;;;;11.20;6.50;;;9.70;60.60;;;;;;4954709;28;20131;-46
2023/10/16 09:26:23;;;;;;;13.18;7.85;;;9.80;60.80;;;;;;4954430;28;20054;-48
2023/10/16 09:28:54;;;;;;;15.25;7.97;;;9.80;60.70;;;;;;4955999;28;20546;-44
2023/10/16 09:31:24;;;;;;;15.10;7.60;;;9.80;60.60;;;;;;4953391;28;20046;-47
2023/10/16 09:33:55;;;;;;;18.30;7.40;;;9.90;60.60;;;;;;4954618;28;20068;-49
2023/10/16 09:36:22;;;;;;;20.05;7.97;;;9.90;60.50;;;;;;4953901;28;20415;-45
2023/10/16 09:38:56;;;;;;;16.77;8.50;;;10.00;60.50;;;;;;4952607;28;20069;-49
2023/10/16 09:41:42;;;;;;;21.15;9.30;;;10.00;60.50;;;;;;4952389;28;20055;-46
2023/10/16 09:44:22;;;;;;;21.30;8.68;;;10.10;60.50;;;;;;4954801;28;20054;-52
2023/10/16 09:46:52;;;;;;;14.52;8.20;;;10.10;60.40;;;;;;4959309;28;20063;-45
2023/10/16 09:49:23;;;;;;;16.85;9.40;;;10.20;60.40;;;;;;4955167;28;20051;-49
2023/10/16 09:51:57;;;;;;;17.90;8.15;;;10.20;60.30;;;;;;4956959;28;20057;-44
2023/10/16 09:54:29;;;;;;;;;;;10.20;60.20;;;;;;4957016;28;20054;-51
2023/10/16 09:57:06;;;;;;;16.77;8.52;;;10.30;60.20;;;;;;4955129;28;19926;-47
2023/10/16 09:59:38;;;;;;;20.80;9.02;;;10.40;60.00;;;;;;4955178;28;20399;-44
2023/10/16 10:02:09;;;;;;;15.95;8.88;;;10.40;60.00;;;;;;4956302;28;20459;-50
2023/10/16 10:04:39;;;;;;;15.38;7.50;;;10.40;60.00;;;;;;4955391;28;20056;-46
2023/10/16 10:07:13;;;;;;;13.77;7.93;;;10.50;60.00;;;;;;4957159;28;20419;-49
2023/10/16 10:09:44;;;;;;;;;;;10.50;60.00;;;;;;4954384;28;20054;-48
2023/10/16 10:12:28;;;;;;;15.80;8.40;;;10.60;60.10;;;;;;4957211;28;19926;-43
2023/10/16 10:15:07;;;;;;;;;;;10.70;59.90;;;;;;4956080;28;20546;-49
2023/10/16 10:17:38;;;;;;;15.18;8.27;;;10.70;59.90;;;;;;4957926;28;20294;-46
2023/10/16 10:20:09;;;;;;;16.88;8.50;;;10.80;59.80;;;;;;4957083;28;20059;-47
2023/10/16 10:23:20;;;;;;;19.08;9.05;;;10.80;59.80;;;;;;4953663;28;20062;-46
2023/10/16 10:25:47;;;;;;;17.13;9.05;;;10.90;59.80;;;;;;4955537;28;20058;-47
2023/10/16 10:28:23;;;;;;;17.83;9.07;;;11.00;59.90;;;;;;4954554;28;20054;-49
2023/10/16 10:30:55;;;;;;;15.27;8.05;;;11.00;59.90;;;;;;4954471;28;20080;-46
2023/10/16 10:33:37;;;;;;;16.70;8.55;;;11.10;59.90;;;;;;4955048;28;20059;-49
2023/10/16 10:36:30;;;;;;;16.17;8.15;;;11.10;59.60;;;;;;4954673;28;21068;-46
2023/10/16 10:39:38;;;;;;;16.98;8.45;;;11.20;59.60;;;;;;4954396;28;20050;-46
2023/10/16 10:42:09;;;;;;;16.02;9.05;;;11.30;59.60;;;;;;4957114;28;20423;-46
2023/10/16 10:44:44;;;;;;;19.15;8.75;;;11.30;59.50;;;;;;4958013;28;20051;-46
2023/10/16 10:47:20;;;;;;;26.35;9.85;;;11.30;59.50;;;;;;4958774;28;20063;-49
2023/10/16 10:49:49;;;;;;;24.73;9.07;;;11.40;59.60;;;;;;4957426;28;20061;-49
2023/10/16 10:52:19;;;;;;;17.63;8.30;;;11.50;59.60;;;;;;4957229;28;20059;-45
2023/10/16 10:54:49;;;;;;;16.02;8.00;;;11.50;59.50;;;;;;4957543;28;20062;-47
2023/10/16 10:57:22;;;;;;;14.60;8.38;;;11.50;59.50;;;;;;4958609;28;20062;-44
2023/10/16 10:59:55;;;;;;;15.13;7.85;;;11.60;59.50;;;;;;4958063;28;20510;-46
2023/10/16 11:02:48;;;;;;;13.38;7.68;;;11.60;59.40;;;;;;4957800;28;20054;-46
2023/10/16 11:05:23;;;;;;;12.77;6.25;;;11.70;59.30;;;;;;4957262;28;20069;-49
2023/10/16 11:08:17;;;;;;;15.55;7.57;;;11.70;59.10;;;;;;4958841;28;20055;-46
2023/10/16 11:10:47;;;;;;;14.80;6.88;;;11.80;58.90;;;;;;4958244;28;20059;-46
2023/10/16 11:14:07;;;;;;;15.00;6.55;;;11.80;58.80;;;;;;4957417;28;20527;-45
2023/10/16 11:16:45;;;;;;;23.73;7.40;;;11.80;58.60;;;;;;4957400;28;20113;-47
2023/10/16 11:19:23;;;;;;;15.38;7.00;;;11.80;58.60;;;;;;4956913;28;20065;-46
2023/10/16 11:21:50;;;;;;;12.30;6.90;;;11.80;58.70;;;;;;4955830;28;20055;-44
2023/10/16 11:24:18;;;;;;;15.55;6.88;;;11.90;58.70;;;;;;4953844;28;20516;-46
2023/10/16 11:26:46;;;;;;;14.40;5.75;;;11.90;58.70;;;;;;4954401;28;20047;-47
2023/10/16 11:29:13;;;;;;;12.23;6.40;;;11.90;58.70;;;;;;4954685;28;20063;-48
2023/10/16 11:31:41;;;;;;;13.18;6.43;;;11.90;58.60;;;;;;4953474;28;20427;-46
2023/10/16 11:34:13;;;;;;;14.52;6.30;;;11.90;58.70;;;;;;4953616;28;20054;-49
2023/10/16 11:36:41;;;;;;;10.25;5.70;;;11.90;58.60;;;;;;4953522;28;20058;-48
2023/10/16 11:39:08;;;;;;;13.10;6.35;;;11.90;58.70;;;;;;4954333;28;20050;-47
2023/10/16 11:41:37;;;;;;;10.07;5.90;;;11.90;58.60;;;;;;4955427;28;20641;-46
2023/10/16 11:44:13;;;;;;;13.85;5.97;;;12.00;58.60;;;;;;4956663;28;20059;-47
2023/10/16 11:46:52;;;;;;;17.08;6.88;;;12.00;58.50;;;;;;4954136;28;20424;-47
2023/10/16 11:49:31;;;;;;;11.73;5.75;;;12.00;58.60;;;;;;4953837;28;20074;-47
2023/10/16 11:52:08;;;;;;;13.63;5.63;;;12.00;58.60;;;;;;4957425;28;20101;-45
2023/10/16 11:54:39;;;;;;;9.75;5.15;;;12.00;58.60;;;;;;4956436;28;20059;-49
2023/10/16 11:57:07;;;;;;;12.75;4.88;;;12.10;58.70;;;;;;4956929;28;20058;-48
2023/10/16 11:59:34;;;;;;;14.02;5.32;;;12.10;58.70;;;;;;4956423;28;20054;-46
2023/10/16 12:02:10;;;;;;;9.65;4.65;;;12.10;58.70;;;;;;4956984;28;20051;-46
2023/10/16 12:04:41;;;;;;;16.13;6.28;;;12.10;58.60;;;;;;4956049;28;20063;-45
2023/10/16 12:07:08;;;;;;;12.00;5.38;;;12.20;58.60;;;;;;4956616;28;20070;-45
2023/10/16 12:09:38;;;;;;;9.48;4.63;;;12.20;58.60;;;;;;4956423;28;20058;-45
2023/10/16 12:12:06;;;;;;;11.27;4.80;;;12.30;58.60;;;;;;4956134;28;20058;-47
2023/10/16 12:14:37;;;;;;;10.10;4.63;;;12.30;58.60;;;;;;4956402;28;20062;-46
2023/10/16 12:17:06;;;;;;;10.00;4.50;;;12.40;58.60;;;;;;4956999;28;20495;-46
2023/10/16 12:19:34;;;;;;;11.48;4.47;;;12.30;58.40;;;;;;4955697;28;20059;-45
2023/10/16 12:22:03;;;;;;;11.63;4.72;;;12.40;58.40;;;;;;4952770;28;20047;-45
2023/10/16 12:24:31;;;;;;;8.35;3.63;;;12.40;58.70;;;;;;4952734;28;20051;-48
2023/10/16 12:27:01;;;;;;;9.50;3.95;;;12.50;58.30;;;;;;4952568;28;20074;-45
2023/10/16 12:29:28;;;;;;;11.82;4.13;;;12.50;58.20;;;;;;4952887;28;20059;-44
2023/10/16 12:31:58;;;;;;;7.78;4.05;;;12.50;58.10;;;;;;4952859;28;20047;-47
2023/10/16 12:34:26;;;;;;;8.35;3.60;;;12.60;58.10;;;;;;4950299;28;20063;-47
2023/10/16 12:36:53;;;;;;;6.85;3.08;;;12.70;58.00;;;;;;4951589;28;20059;-49
2023/10/16 12:39:25;;;;;;;9.70;3.03;;;12.70;57.80;;;;;;4953028;28;20058;-47
2023/10/16 12:41:54;;;;;;;8.10;2.67;;;12.80;57.60;;;;;;4953026;28;20512;-50
2023/10/16 12:44:23;;;;;;;5.43;2.63;;;12.80;57.60;;;;;;4955172;28;20491;-46
2023/10/16 12:46:52;;;;;;;7.65;3.00;;;12.90;57.50;;;;;;4955644;28;20062;-46
2023/10/16 12:49:19;;;;;;;6.68;3.30;;;12.90;57.40;;;;;;4953696;28;20055;-49
2023/10/16 12:51:49;;;;;;;7.68;3.20;;;12.90;57.20;;;;;;4954980;28;20070;-49
2023/10/16 12:54:19;;;;;;;7.25;3.45;;;13.00;57.20;;;;;;4955077;28;20059;-46
2023/10/16 12:56:48;;;;;;;6.88;3.20;;;13.10;57.20;;;;;;4954481;28;20066;-46
2023/10/16 12:59:15;;;;;;;7.18;3.10;;;13.10;57.10;;;;;;4956037;28;20055;-51
2023/10/16 13:01:45;;;;;;;8.18;2.97;;;13.20;57.00;;;;;;4956452;28;20050;-48
2023/10/16 13:04:16;;;;;;;6.25;3.00;;;13.20;56.40;;;;;;4957340;28;20058;-48
2023/10/16 13:06:44;;;;;;;5.95;2.45;;;13.20;56.00;;;;;;4953912;28;20059;-49
2023/10/16 13:09:16;;;;;;;8.00;2.20;;;13.30;56.10;;;;;;4956434;28;20066;-46
2023/10/16 13:11:42;;;;;;;6.38;2.30;;;13.30;56.20;;;;;;4956830;28;20409;-50
2023/10/16 13:14:12;;;;;;;5.38;2.28;;;13.40;56.10;;;;;;4958557;28;20046;-49
2023/10/16 13:16:40;;;;;;;4.85;2.00;;;13.40;56.10;;;;;;4959864;28;20051;-47
2023/10/16 13:19:09;;;;;;;3.83;1.90;;;13.40;56.10;;;;;;4955142;28;20058;-48
2023/10/16 13:21:41;;;;;;;4.30;1.50;;;13.40;56.00;;;;;;4958176;28;20054;-49
2023/10/16 13:24:11;;;;;;;3.60;1.70;;;13.50;55.90;;;;;;4958592;28;20046;-49
2023/10/16 13:26:39;;;;;;;4.30;2.00;;;13.50;55.70;;;;;;4957205;28;20046;-47
2023/10/16 13:29:08;;;;;;;3.80;1.83;;;13.60;55.60;;;;;;4958028;28;20062;-46
2023/10/16 13:31:40;;;;;;;4.93;1.85;;;13.60;55.50;;;;;;4956994;28;20051;-48
2023/10/16 13:34:10;;;;;;;3.70;1.80;;;13.60;55.40;;;;;;4955153;28;20061;-45
2023/10/16 13:36:38;;;;;;;8.40;2.40;;;13.60;55.30;;;;;;4955874;28;20070;-44
2023/10/16 13:39:08;;;;;;;7.10;1.98;;;13.70;55.50;;;;;;4955938;28;20063;-51
2023/10/16 13:41:50;;;;;;;8.45;2.33;;;13.70;55.40;;;;;;4958142;28;20055;-47
2023/10/16 13:44:19;;;;;;;5.03;1.98;;;13.70;55.30;;;;;;4956901;28;20050;-48
2023/10/16 13:46:48;;;;;;;3.92;1.60;;;13.70;54.70;;;;;;4958386;28;21193;-44
2023/10/16 13:49:16;;;;;;;5.10;1.58;;;13.80;54.60;;;;;;4956445;28;20055;-48
2023/10/16 13:51:44;;;;;;;8.40;2.38;;;13.80;54.20;;;;;;4959085;28;20420;-46
2023/10/16 13:54:12;;;;;;;6.53;1.95;;;13.70;54.00;;;;;;4959524;28;20051;-50
2023/10/16 13:56:40;;;;;;;9.20;1.73;;;13.70;54.20;;;;;;4961011;28;20150;-49
2023/10/16 13:59:07;;;;;;;3.83;1.58;;;13.80;54.50;;;;;;4959274;28;20439;-48
2023/10/16 14:01:38;;;;;;;1.92;1.40;;;13.80;54.70;;;;;;4959902;28;20550;-45
2023/10/16 14:04:13;;;;;;;4.55;1.58;;;13.80;54.70;;;;;;4959976;28;20082;-48
2023/10/16 14:06:41;;;;;;;5.78;1.98;;;13.80;54.60;;;;;;4959211;28;20055;-48
2023/10/16 14:09:18;;;;;;;6.90;1.98;;;13.80;54.60;;;;;;4960066;28;20513;-48
2023/10/16 14:11:48;;;;;;;6.97;1.90;;;13.80;54.50;;;;;;4959688;28;20058;-49
2023/10/16 14:14:18;;;;;;;4.13;1.92;;;13.90;54.50;;;;;;4960400;28;20121;-49
2023/10/16 14:16:49;;;;;;;7.32;1.73;;;13.90;54.40;;;;;;4959455;28;20065;-48
2023/10/16 14:19:22;;;;;;;3.17;1.50;;;13.90;54.50;;;;;;4959039;28;20051;-47
2023/10/16 14:21:51;;;;;;;2.35;1.30;;;13.90;54.50;;;;;;4960125;28;20065;-47
2023/10/16 14:24:22;;;;;;;3.15;1.30;;;13.90;54.60;;;;;;4959023;28;20054;-52